sensor_id;sensor_type;location;lat;lon;timestamp;pressure;altitude;pressure_sealevel;temperature;humidity
34177;BME280;20450;49.074;9.158;2023-03-18T00:00:28;99312.88;;;10.46;75.95
34177;BME280;20450;49.074;9.158;2023-03-18T00:02:55;99315.88;;;10.38;76.66
34177;BME280;20450;49.074;9.158;2023-03-18T00:05:22;99307.38;;;10.35;76.71
34177;BME280;20450;49.074;9.158;2023-03-18T00:07:49;99299.66;;;10.14;78.59
34177;BME280;20450;49.074;9.158;2023-03-18T00:10:16;99311.47;;;10.19;78.61
34177;BME280;20450;49.074;9.158;2023-03-18T00:12:45;99310.41;;;10.20;78.58
34177;BME280;20450;49.074;9.158;2023-03-18T00:15:13;99313.06;;;10.27;78.17
34177;BME280;20450;49.074;9.158;2023-03-18T00:17:41;99306.53;;;10.34;77.56
34177;BME280;20450;49.074;9.158;2023-03-18T00:20:10;99306.09;;;10.37;77.36
34177;BME280;20450;49.074;9.158;2023-03-18T00:22:39;99322.69;;;10.41;76.62
34177;BME280;20450;49.074;9.158;2023-03-18T00:25:09;99314.88;;;10.33;77.13
34177;BME280;20450;49.074;9.158;2023-03-18T00:27:37;99306.63;;;10.28;77.83
34177;BME280;20450;49.074;9.158;2023-03-18T00:30:07;99325.28;;;10.29;77.12
34177;BME280;20450;49.074;9.158;2023-03-18T00:32:35;99329.63;;;10.30;77.50
34177;BME280;20450;49.074;9.158;2023-03-18T00:35:03;99322.75;;;10.34;77.39
34177;BME280;20450;49.074;9.158;2023-03-18T00:37:30;99323.97;;;10.38;76.83
34177;BME280;20450;49.074;9.158;2023-03-18T00:40:00;99325.66;;;10.33;77.10
34177;BME280;20450;49.074;9.158;2023-03-18T00:42:29;99335.00;;;10.37;76.51
34177;BME280;20450;49.074;9.158;2023-03-18T00:44:56;99334.56;;;10.40;76.54
34177;BME280;20450;49.074;9.158;2023-03-18T00:47:24;99333.94;;;10.38;76.17
34177;BME280;20450;49.074;9.158;2023-03-18T00:49:51;99341.41;;;10.36;77.04
34177;BME280;20450;49.074;9.158;2023-03-18T00:52:18;99344.34;;;10.34;77.01
34177;BME280;20450;49.074;9.158;2023-03-18T00:54:45;99338.19;;;10.27;76.43
34177;BME280;20450;49.074;9.158;2023-03-18T00:57:12;99338.91;;;10.16;77.50
34177;BME280;20450;49.074;9.158;2023-03-18T00:59:39;99332.00;;;10.20;77.42
34177;BME280;20450;49.074;9.158;2023-03-18T01:02:06;99340.78;;;10.16;77.53
34177;BME280;20450;49.074;9.158;2023-03-18T01:04:35;99344.56;;;10.08;77.61
34177;BME280;20450;49.074;9.158;2023-03-18T01:07:02;99343.72;;;10.08;77.68
34177;BME280;20450;49.074;9.158;2023-03-18T01:09:28;99330.63;;;10.11;77.55
34177;BME280;20450;49.074;9.158;2023-03-18T01:11:55;99333.94;;;10.13;77.21
34177;BME280;20450;49.074;9.158;2023-03-18T01:14:22;99334.31;;;10.17;76.89
34177;BME280;20450;49.074;9.158;2023-03-18T01:16:49;99328.91;;;10.17;77.53
34177;BME280;20450;49.074;9.158;2023-03-18T01:19:17;99323.16;;;10.13;77.22
34177;BME280;20450;49.074;9.158;2023-03-18T01:21:45;99332.50;;;10.11;75.68
34177;BME280;20450;49.074;9.158;2023-03-18T01:24:12;99341.59;;;10.16;75.98
34177;BME280;20450;49.074;9.158;2023-03-18T01:26:39;99340.34;;;10.19;75.97
34177;BME280;20450;49.074;9.158;2023-03-18T01:29:06;99337.41;;;10.20;76.38
34177;BME280;20450;49.074;9.158;2023-03-18T01:31:33;99340.81;;;10.09;76.05
34177;BME280;20450;49.074;9.158;2023-03-18T01:34:05;99338.00;;;9.91;76.33
34177;BME280;20450;49.074;9.158;2023-03-18T01:36:42;99346.31;;;9.89;77.93
34177;BME280;20450;49.074;9.158;2023-03-18T01:39:10;99346.81;;;9.80;76.94
34177;BME280;20450;49.074;9.158;2023-03-18T01:41:37;99342.91;;;9.76;77.67
34177;BME280;20450;49.074;9.158;2023-03-18T01:44:11;99345.31;;;9.84;77.13
34177;BME280;20450;49.074;9.158;2023-03-18T01:46:42;99345.75;;;9.81;76.49
34177;BME280;20450;49.074;9.158;2023-03-18T01:49:15;99345.97;;;9.79;76.47
34177;BME280;20450;49.074;9.158;2023-03-18T01:51:48;99352.63;;;9.77;76.43
34177;BME280;20450;49.074;9.158;2023-03-18T01:54:21;99346.81;;;9.80;76.61
34177;BME280;20450;49.074;9.158;2023-03-18T01:56:52;99346.75;;;9.86;76.65
34177;BME280;20450;49.074;9.158;2023-03-18T01:59:24;99342.75;;;9.95;76.63
34177;BME280;20450;49.074;9.158;2023-03-18T02:01:59;99345.84;;;9.99;77.36
34177;BME280;20450;49.074;9.158;2023-03-18T02:04:38;99344.97;;;10.05;78.38
34177;BME280;20450;49.074;9.158;2023-03-18T02:07:14;99347.66;;;10.05;78.57
34177;BME280;20450;49.074;9.158;2023-03-18T02:09:43;99336.69;;;10.00;79.58
34177;BME280;20450;49.074;9.158;2023-03-18T02:12:12;99340.88;;;9.96;79.47
34177;BME280;20450;49.074;9.158;2023-03-18T02:14:44;99352.50;;;9.96;79.84
34177;BME280;20450;49.074;9.158;2023-03-18T02:17:14;99351.75;;;9.83;79.48
34177;BME280;20450;49.074;9.158;2023-03-18T02:19:51;99348.00;;;9.84;79.00
34177;BME280;20450;49.074;9.158;2023-03-18T02:22:28;99342.63;;;9.84;78.19
34177;BME280;20450;49.074;9.158;2023-03-18T02:25:10;99351.69;;;9.89;78.84
34177;BME280;20450;49.074;9.158;2023-03-18T02:27:50;99351.28;;;9.92;78.03
34177;BME280;20450;49.074;9.158;2023-03-18T02:30:25;99340.47;;;9.92;77.35
34177;BME280;20450;49.074;9.158;2023-03-18T02:32:57;99347.16;;;9.90;76.90
34177;BME280;20450;49.074;9.158;2023-03-18T02:35:26;99345.53;;;9.82;77.86
34177;BME280;20450;49.074;9.158;2023-03-18T02:37:58;99347.19;;;9.83;79.09
34177;BME280;20450;49.074;9.158;2023-03-18T02:40:31;99346.97;;;9.85;79.23
34177;BME280;20450;49.074;9.158;2023-03-18T02:43:17;99348.84;;;9.84;79.41
34177;BME280;20450;49.074;9.158;2023-03-18T02:46:13;99354.63;;;9.88;79.66
34177;BME280;20450;49.074;9.158;2023-03-18T02:48:48;99353.41;;;9.84;78.82
34177;BME280;20450;49.074;9.158;2023-03-18T02:51:16;99355.94;;;9.79;79.26
34177;BME280;20450;49.074;9.158;2023-03-18T02:53:44;99353.50;;;9.71;79.18
34177;BME280;20450;49.074;9.158;2023-03-18T02:56:11;99354.97;;;9.67;79.01
34177;BME280;20450;49.074;9.158;2023-03-18T02:58:42;99353.50;;;9.71;79.50
34177;BME280;20450;49.074;9.158;2023-03-18T03:01:10;99362.59;;;9.76;79.15
34177;BME280;20450;49.074;9.158;2023-03-18T03:03:38;99363.63;;;9.75;79.71
34177;BME280;20450;49.074;9.158;2023-03-18T03:06:08;99369.09;;;9.62;79.64
34177;BME280;20450;49.074;9.158;2023-03-18T03:08:35;99363.53;;;9.51;79.29
34177;BME280;20450;49.074;9.158;2023-03-18T03:11:04;99362.94;;;9.49;79.45
34177;BME280;20450;49.074;9.158;2023-03-18T03:13:35;99368.97;;;9.44;79.11
34177;BME280;20450;49.074;9.158;2023-03-18T03:16:06;99363.47;;;9.20;78.90
34177;BME280;20450;49.074;9.158;2023-03-18T03:18:33;99373.88;;;9.10;79.36
34177;BME280;20450;49.074;9.158;2023-03-18T03:21:02;99380.69;;;9.12;79.56
34177;BME280;20450;49.074;9.158;2023-03-18T03:23:29;99381.94;;;9.16;79.41
34177;BME280;20450;49.074;9.158;2023-03-18T03:25:56;99389.41;;;9.08;79.61
34177;BME280;20450;49.074;9.158;2023-03-18T03:28:23;99379.25;;;9.10;79.88
34177;BME280;20450;49.074;9.158;2023-03-18T03:30:51;99382.38;;;9.07;79.80
34177;BME280;20450;49.074;9.158;2023-03-18T03:33:20;99383.66;;;8.98;79.66
34177;BME280;20450;49.074;9.158;2023-03-18T03:35:47;99383.00;;;8.96;79.78
34177;BME280;20450;49.074;9.158;2023-03-18T03:38:14;99387.19;;;8.98;79.98
34177;BME280;20450;49.074;9.158;2023-03-18T03:40:41;99385.31;;;8.86;81.41
34177;BME280;20450;49.074;9.158;2023-03-18T03:43:11;99396.34;;;8.71;82.80
34177;BME280;20450;49.074;9.158;2023-03-18T03:45:38;99389.72;;;8.41;83.40
34177;BME280;20450;49.074;9.158;2023-03-18T03:48:06;99399.22;;;8.31;83.14
34177;BME280;20450;49.074;9.158;2023-03-18T03:50:34;99390.50;;;8.16;83.15
34177;BME280;20450;49.074;9.158;2023-03-18T03:53:02;99393.19;;;8.16;83.29
34177;BME280;20450;49.074;9.158;2023-03-18T03:55:30;99394.44;;;8.20;82.81
34177;BME280;20450;49.074;9.158;2023-03-18T03:57:57;99401.31;;;8.29;83.14
34177;BME280;20450;49.074;9.158;2023-03-18T04:00:25;99396.75;;;8.36;82.36
34177;BME280;20450;49.074;9.158;2023-03-18T04:02:53;99395.72;;;8.37;82.27
34177;BME280;20450;49.074;9.158;2023-03-18T04:05:23;99398.63;;;8.29;81.71
34177;BME280;20450;49.074;9.158;2023-03-18T04:07:52;99396.13;;;8.34;82.10
34177;BME280;20450;49.074;9.158;2023-03-18T04:10:31;99392.81;;;8.38;81.48
34177;BME280;20450;49.074;9.158;2023-03-18T04:12:58;99395.13;;;8.35;82.09
34177;BME280;20450;49.074;9.158;2023-03-18T04:15:26;99401.53;;;8.27;83.11
34177;BME280;20450;49.074;9.158;2023-03-18T04:17:54;99404.63;;;8.24;82.85
34177;BME280;20450;49.074;9.158;2023-03-18T04:20:23;99410.22;;;8.23;82.37
34177;BME280;20450;49.074;9.158;2023-03-18T04:22:55;99402.75;;;8.25;82.96
34177;BME280;20450;49.074;9.158;2023-03-18T04:25:22;99404.84;;;8.23;82.50
34177;BME280;20450;49.074;9.158;2023-03-18T04:27:51;99406.47;;;8.24;82.76
34177;BME280;20450;49.074;9.158;2023-03-18T04:30:20;99410.56;;;8.13;82.28
34177;BME280;20450;49.074;9.158;2023-03-18T04:32:55;99409.53;;;8.14;82.54
34177;BME280;20450;49.074;9.158;2023-03-18T04:35:22;99405.22;;;8.20;82.93
34177;BME280;20450;49.074;9.158;2023-03-18T04:37:50;99407.53;;;8.23;82.51
34177;BME280;20450;49.074;9.158;2023-03-18T04:40:19;99413.50;;;8.25;81.99
34177;BME280;20450;49.074;9.158;2023-03-18T04:42:46;99411.88;;;8.24;81.59
34177;BME280;20450;49.074;9.158;2023-03-18T04:45:15;99416.41;;;8.30;81.40
34177;BME280;20450;49.074;9.158;2023-03-18T04:47:43;99412.72;;;8.37;81.06
34177;BME280;20450;49.074;9.158;2023-03-18T04:50:12;99411.88;;;8.37;80.16
34177;BME280;20450;49.074;9.158;2023-03-18T04:52:41;99418.94;;;8.38;80.37
34177;BME280;20450;49.074;9.158;2023-03-18T04:55:11;99407.53;;;8.36;80.08
34177;BME280;20450;49.074;9.158;2023-03-18T04:57:41;99411.25;;;8.35;79.52
34177;BME280;20450;49.074;9.158;2023-03-18T05:00:14;99427.00;;;8.38;79.91
34177;BME280;20450;49.074;9.158;2023-03-18T05:02:46;99418.09;;;8.37;79.16
34177;BME280;20450;49.074;9.158;2023-03-18T05:05:13;99414.75;;;8.35;79.09
34177;BME280;20450;49.074;9.158;2023-03-18T05:07:46;99411.69;;;8.32;79.30
34177;BME280;20450;49.074;9.158;2023-03-18T05:10:15;99421.41;;;8.33;80.40
34177;BME280;20450;49.074;9.158;2023-03-18T05:12:43;99414.56;;;8.30;80.33
34177;BME280;20450;49.074;9.158;2023-03-18T05:15:14;99423.25;;;8.26;79.53
34177;BME280;20450;49.074;9.158;2023-03-18T05:17:47;99420.31;;;8.21;79.51
34177;BME280;20450;49.074;9.158;2023-03-18T05:20:14;99418.44;;;8.01;79.11
34177;BME280;20450;49.074;9.158;2023-03-18T05:22:44;99418.00;;;7.98;80.08
34177;BME280;20450;49.074;9.158;2023-03-18T05:25:27;99423.16;;;7.99;79.39
34177;BME280;20450;49.074;9.158;2023-03-18T05:27:56;99425.03;;;7.99;79.37
34177;BME280;20450;49.074;9.158;2023-03-18T05:30:31;99423.16;;;7.99;79.91
34177;BME280;20450;49.074;9.158;2023-03-18T05:32:58;99417.34;;;7.96;79.33
34177;BME280;20450;49.074;9.158;2023-03-18T05:35:45;99424.22;;;7.98;80.66
34177;BME280;20450;49.074;9.158;2023-03-18T05:38:13;99420.88;;;7.96;81.42
34177;BME280;20450;49.074;9.158;2023-03-18T05:40:40;99427.09;;;7.97;81.93
34177;BME280;20450;49.074;9.158;2023-03-18T05:43:17;99436.56;;;7.80;81.37
34177;BME280;20450;49.074;9.158;2023-03-18T05:45:50;99428.50;;;7.73;80.09
34177;BME280;20450;49.074;9.158;2023-03-18T05:48:23;99425.53;;;7.55;80.27
34177;BME280;20450;49.074;9.158;2023-03-18T05:50:54;99424.47;;;7.56;79.86
34177;BME280;20450;49.074;9.158;2023-03-18T05:53:24;99429.00;;;7.49;81.23
34177;BME280;20450;49.074;9.158;2023-03-18T05:56:00;99429.47;;;7.59;81.33
34177;BME280;20450;49.074;9.158;2023-03-18T05:58:30;99423.31;;;7.72;80.80
34177;BME280;20450;49.074;9.158;2023-03-18T06:01:14;99423.34;;;7.85;80.36
34177;BME280;20450;49.074;9.158;2023-03-18T06:03:41;99422.13;;;7.94;79.93
34177;BME280;20450;49.074;9.158;2023-03-18T06:06:08;99433.94;;;7.99;78.68
34177;BME280;20450;49.074;9.158;2023-03-18T06:08:35;99428.53;;;7.99;80.34
34177;BME280;20450;49.074;9.158;2023-03-18T06:11:03;99440.53;;;8.03;80.77
34177;BME280;20450;49.074;9.158;2023-03-18T06:13:31;99439.53;;;8.11;80.69
34177;BME280;20450;49.074;9.158;2023-03-18T06:15:59;99440.19;;;8.20;79.86
34177;BME280;20450;49.074;9.158;2023-03-18T06:18:28;99444.78;;;8.26;78.89
34177;BME280;20450;49.074;9.158;2023-03-18T06:20:55;99446.66;;;8.32;77.80
34177;BME280;20450;49.074;9.158;2023-03-18T06:23:22;99446.88;;;8.56;77.90
34177;BME280;20450;49.074;9.158;2023-03-18T06:25:49;99445.41;;;8.80;76.90
34177;BME280;20450;49.074;9.158;2023-03-18T06:28:18;99444.56;;;9.12;75.72
34177;BME280;20450;49.074;9.158;2023-03-18T06:30:47;99441.09;;;9.55;74.30
34177;BME280;20450;49.074;9.158;2023-03-18T06:33:13;99452.91;;;10.05;72.60
34177;BME280;20450;49.074;9.158;2023-03-18T06:35:41;99448.25;;;10.56;71.89
34177;BME280;20450;49.074;9.158;2023-03-18T06:38:08;99440.22;;;11.17;68.93
34177;BME280;20450;49.074;9.158;2023-03-18T06:40:36;99447.31;;;11.72;66.90
34177;BME280;20450;49.074;9.158;2023-03-18T06:43:04;99449.28;;;12.13;64.30
34177;BME280;20450;49.074;9.158;2023-03-18T06:45:37;99445.91;;;12.58;62.40
34177;BME280;20450;49.074;9.158;2023-03-18T06:48:08;99449.97;;;13.25;60.07
34177;BME280;20450;49.074;9.158;2023-03-18T06:50:39;99448.94;;;14.28;57.12
34177;BME280;20450;49.074;9.158;2023-03-18T06:53:12;99452.34;;;15.34;54.19
34177;BME280;20450;49.074;9.158;2023-03-18T06:55:40;99447.78;;;16.21;50.86
34177;BME280;20450;49.074;9.158;2023-03-18T06:58:07;99452.22;;;16.80;48.93
34177;BME280;20450;49.074;9.158;2023-03-18T07:00:43;99441.88;;;17.14;48.38
34177;BME280;20450;49.074;9.158;2023-03-18T07:03:18;99446.22;;;18.03;46.49
34177;BME280;20450;49.074;9.158;2023-03-18T07:05:44;99448.16;;;18.18;45.69
34177;BME280;20450;49.074;9.158;2023-03-18T07:08:12;99446.00;;;18.25;45.09
34177;BME280;20450;49.074;9.158;2023-03-18T07:10:40;99442.84;;;18.83;45.04
34177;BME280;20450;49.074;9.158;2023-03-18T07:13:11;99441.34;;;19.86;41.91
34177;BME280;20450;49.074;9.158;2023-03-18T07:15:39;99454.41;;;20.19;40.67
34177;BME280;20450;49.074;9.158;2023-03-18T07:18:06;99446.59;;;19.72;41.58
34177;BME280;20450;49.074;9.158;2023-03-18T07:20:38;99449.41;;;18.57;43.07
34177;BME280;20450;49.074;9.158;2023-03-18T07:23:06;99447.53;;;18.92;42.62
34177;BME280;20450;49.074;9.158;2023-03-18T07:25:33;99449.41;;;19.52;41.22
34177;BME280;20450;49.074;9.158;2023-03-18T07:28:00;99456.47;;;20.80;39.26
34177;BME280;20450;49.074;9.158;2023-03-18T07:30:27;99448.25;;;21.71;36.34
34177;BME280;20450;49.074;9.158;2023-03-18T07:32:55;99451.34;;;22.35;35.38
34177;BME280;20450;49.074;9.158;2023-03-18T07:35:23;99452.19;;;22.73;34.42
34177;BME280;20450;49.074;9.158;2023-03-18T07:37:53;99458.13;;;22.98;34.16
34177;BME280;20450;49.074;9.158;2023-03-18T07:40:20;99449.28;;;23.79;33.54
34177;BME280;20450;49.074;9.158;2023-03-18T07:42:48;99454.19;;;23.37;32.82
34177;BME280;20450;49.074;9.158;2023-03-18T07:45:16;99452.75;;;23.26;33.63
34177;BME280;20450;49.074;9.158;2023-03-18T07:47:43;99460.38;;;23.61;33.16
34177;BME280;20450;49.074;9.158;2023-03-18T07:50:13;99452.66;;;24.30;31.31
34177;BME280;20450;49.074;9.158;2023-03-18T07:52:40;99450.69;;;24.44;30.40
34177;BME280;20450;49.074;9.158;2023-03-18T07:55:08;99450.72;;;24.31;30.56
34177;BME280;20450;49.074;9.158;2023-03-18T07:57:36;99448.47;;;24.19;29.64
34177;BME280;20450;49.074;9.158;2023-03-18T08:00:08;99456.75;;;23.92;30.61
34177;BME280;20450;49.074;9.158;2023-03-18T08:02:40;99451.13;;;23.70;30.17
34177;BME280;20450;49.074;9.158;2023-03-18T08:05:08;99455.91;;;23.92;30.98
34177;BME280;20450;49.074;9.158;2023-03-18T08:07:36;99457.28;;;24.70;30.04
34177;BME280;20450;49.074;9.158;2023-03-18T08:10:04;99455.41;;;24.17;29.81
34177;BME280;20450;49.074;9.158;2023-03-18T08:12:33;99456.13;;;24.85;29.01
34177;BME280;20450;49.074;9.158;2023-03-18T08:15:20;99468.00;;;25.08;29.24
34177;BME280;20450;49.074;9.158;2023-03-18T08:18:01;99458.91;;;26.29;28.88
34177;BME280;20450;49.074;9.158;2023-03-18T08:20:28;99466.78;;;26.44;27.60
34177;BME280;20450;49.074;9.158;2023-03-18T08:22:56;99469.50;;;25.14;28.63
34177;BME280;20450;49.074;9.158;2023-03-18T08:25:25;99464.81;;;24.43;30.42
34177;BME280;20450;49.074;9.158;2023-03-18T08:27:53;99474.34;;;25.52;29.28
34177;BME280;20450;49.074;9.158;2023-03-18T08:30:20;99477.75;;;25.49;28.40
34177;BME280;20450;49.074;9.158;2023-03-18T08:32:47;99480.22;;;25.51;28.98
34177;BME280;20450;49.074;9.158;2023-03-18T08:35:14;99475.06;;;26.27;27.73
34177;BME280;20450;49.074;9.158;2023-03-18T08:37:44;99470.28;;;27.18;26.51
34177;BME280;20450;49.074;9.158;2023-03-18T08:40:11;99465.09;;;27.80;25.16
34177;BME280;20450;49.074;9.158;2023-03-18T08:43:02;99469.03;;;26.25;27.67
34177;BME280;20450;49.074;9.158;2023-03-18T08:45:29;99472.09;;;25.10;29.28
34177;BME280;20450;49.074;9.158;2023-03-18T08:47:57;99472.16;;;24.47;29.51
34177;BME280;20450;49.074;9.158;2023-03-18T08:50:25;99471.91;;;25.07;27.79
34177;BME280;20450;49.074;9.158;2023-03-18T08:52:52;99473.47;;;25.65;27.53
34177;BME280;20450;49.074;9.158;2023-03-18T08:55:18;99472.34;;;25.66;26.65
34177;BME280;20450;49.074;9.158;2023-03-18T08:57:46;99463.56;;;23.68;27.92
34177;BME280;20450;49.074;9.158;2023-03-18T09:00:16;99459.09;;;23.72;28.27
34177;BME280;20450;49.074;9.158;2023-03-18T09:02:43;99454.47;;;22.05;30.33
34177;BME280;20450;49.074;9.158;2023-03-18T09:05:12;99459.50;;;22.22;31.44
34177;BME280;20450;49.074;9.158;2023-03-18T09:07:39;99460.50;;;21.31;31.77
34177;BME280;20450;49.074;9.158;2023-03-18T09:10:07;99457.13;;;21.06;33.26
34177;BME280;20450;49.074;9.158;2023-03-18T09:12:34;99458.91;;;21.25;33.55
34177;BME280;20450;49.074;9.158;2023-03-18T09:15:02;99449.06;;;22.61;31.27
34177;BME280;20450;49.074;9.158;2023-03-18T09:17:33;99452.66;;;21.72;31.18
34177;BME280;20450;49.074;9.158;2023-03-18T09:20:19;99455.41;;;20.38;34.17
34177;BME280;20450;49.074;9.158;2023-03-18T09:22:46;99458.63;;;20.88;33.78
34177;BME280;20450;49.074;9.158;2023-03-18T09:25:13;99454.06;;;21.12;32.74
34177;BME280;20450;49.074;9.158;2023-03-18T09:27:40;99455.00;;;20.06;34.76
34177;BME280;20450;49.074;9.158;2023-03-18T09:30:08;99460.72;;;20.63;35.00
34177;BME280;20450;49.074;9.158;2023-03-18T09:32:37;99465.44;;;21.29;32.32
34177;BME280;20450;49.074;9.158;2023-03-18T09:35:04;99457.84;;;21.21;32.23
34177;BME280;20450;49.074;9.158;2023-03-18T09:37:38;99445.78;;;21.75;32.73
34177;BME280;20450;49.074;9.158;2023-03-18T09:40:06;99443.97;;;23.05;29.70
34177;BME280;20450;49.074;9.158;2023-03-18T09:42:50;99430.88;;;23.61;26.97
34177;BME280;20450;49.074;9.158;2023-03-18T09:45:28;99435.66;;;22.36;28.74
34177;BME280;20450;49.074;9.158;2023-03-18T09:51:27;99434.66;;;22.45;28.07
34177;BME280;20450;49.074;9.158;2023-03-18T09:54:04;99427.19;;;21.90;29.08
34177;BME280;20450;49.074;9.158;2023-03-18T09:56:38;99428.31;;;22.68;27.27
34177;BME280;20450;49.074;9.158;2023-03-18T09:59:15;99425.41;;;21.99;28.56
34177;BME280;20450;49.074;9.158;2023-03-18T10:01:49;99434.66;;;22.69;28.79
34177;BME280;20450;49.074;9.158;2023-03-18T10:04:22;99421.59;;;23.98;27.24
34177;BME280;20450;49.074;9.158;2023-03-18T10:06:57;99424.34;;;25.18;25.21
34177;BME280;20450;49.074;9.158;2023-03-18T10:09:32;99409.91;;;26.38;23.34
34177;BME280;20450;49.074;9.158;2023-03-18T10:12:12;99418.63;;;24.92;25.19
34177;BME280;20450;49.074;9.158;2023-03-18T10:14:48;99414.53;;;24.19;26.31
34177;BME280;20450;49.074;9.158;2023-03-18T10:17:29;99418.97;;;25.13;25.53
34177;BME280;20450;49.074;9.158;2023-03-18T10:20:00;99405.97;;;25.83;24.88
34177;BME280;20450;49.074;9.158;2023-03-18T10:22:51;99419.34;;;26.37;23.64
34177;BME280;20450;49.074;9.158;2023-03-18T10:25:34;99422.84;;;26.68;23.10
34177;BME280;20450;49.074;9.158;2023-03-18T10:28:29;99418.72;;;27.17;22.63
34177;BME280;20450;49.074;9.158;2023-03-18T10:31:26;99418.72;;;26.49;24.37
34177;BME280;20450;49.074;9.158;2023-03-18T10:34:05;99414.47;;;25.87;22.52
34177;BME280;20450;49.074;9.158;2023-03-18T10:36:47;99430.38;;;22.95;26.95
34177;BME280;20450;49.074;9.158;2023-03-18T10:39:18;99424.59;;;23.10;27.20
34177;BME280;20450;49.074;9.158;2023-03-18T10:41:49;99418.78;;;23.57;27.20
34177;BME280;20450;49.074;9.158;2023-03-18T10:44:20;99418.69;;;24.79;25.04
34177;BME280;20450;49.074;9.158;2023-03-18T10:46:57;99401.00;;;25.55;24.84
34177;BME280;20450;49.074;9.158;2023-03-18T10:49:29;99405.22;;;26.81;22.87
34177;BME280;20450;49.074;9.158;2023-03-18T10:52:04;99396.41;;;26.54;21.74
34177;BME280;20450;49.074;9.158;2023-03-18T10:54:42;99397.88;;;25.26;23.79
34177;BME280;20450;49.074;9.158;2023-03-18T10:57:12;99394.34;;;25.64;23.03
34177;BME280;20450;49.074;9.158;2023-03-18T10:59:44;99387.91;;;26.50;22.30
34177;BME280;20450;49.074;9.158;2023-03-18T11:02:16;99388.44;;;26.78;21.96
34177;BME280;20450;49.074;9.158;2023-03-18T11:04:48;99382.38;;;27.65;22.36
34177;BME280;20450;49.074;9.158;2023-03-18T11:07:21;99382.47;;;28.14;22.32
34177;BME280;20450;49.074;9.158;2023-03-18T11:09:51;99381.72;;;26.88;22.85
34177;BME280;20450;49.074;9.158;2023-03-18T11:12:23;99391.75;;;24.84;23.49
34177;BME280;20450;49.074;9.158;2023-03-18T11:14:51;99383.72;;;25.27;24.50
34177;BME280;20450;49.074;9.158;2023-03-18T11:17:20;99382.00;;;26.01;22.76
34177;BME280;20450;49.074;9.158;2023-03-18T11:19:59;99375.88;;;26.80;23.08
34177;BME280;20450;49.074;9.158;2023-03-18T11:22:28;99379.09;;;28.09;22.12
34177;BME280;20450;49.074;9.158;2023-03-18T11:25:01;99382.06;;;26.77;22.35
34177;BME280;20450;49.074;9.158;2023-03-18T11:27:36;99370.09;;;25.61;23.92
34177;BME280;20450;49.074;9.158;2023-03-18T11:30:16;99372.91;;;26.34;22.81
34177;BME280;20450;49.074;9.158;2023-03-18T11:33:03;99372.09;;;26.34;23.25
34177;BME280;20450;49.074;9.158;2023-03-18T11:35:37;99366.19;;;27.21;22.69
34177;BME280;20450;49.074;9.158;2023-03-18T11:38:13;99351.41;;;25.67;23.43
34177;BME280;20450;49.074;9.158;2023-03-18T11:40:41;99352.56;;;26.56;23.64
34177;BME280;20450;49.074;9.158;2023-03-18T11:43:16;99350.22;;;27.64;22.00
34177;BME280;20450;49.074;9.158;2023-03-18T11:45:56;99356.06;;;28.29;20.96
34177;BME280;20450;49.074;9.158;2023-03-18T11:48:32;99352.22;;;26.32;23.49
34177;BME280;20450;49.074;9.158;2023-03-18T11:51:09;99347.50;;;27.93;21.97
34177;BME280;20450;49.074;9.158;2023-03-18T11:53:58;99338.56;;;26.78;22.79
34177;BME280;20450;49.074;9.158;2023-03-18T11:56:41;99336.88;;;26.09;23.73
34177;BME280;20450;49.074;9.158;2023-03-18T11:59:26;99325.44;;;25.15;24.70
34177;BME280;20450;49.074;9.158;2023-03-18T12:02:29;99319.09;;;25.37;25.51
34177;BME280;20450;49.074;9.158;2023-03-18T12:05:25;99330.22;;;25.23;24.46
34177;BME280;20450;49.074;9.158;2023-03-18T12:08:12;99326.94;;;24.11;26.73
34177;BME280;20450;49.074;9.158;2023-03-18T12:10:55;99328.22;;;21.85;30.37
34177;BME280;20450;49.074;9.158;2023-03-18T12:13:37;99334.34;;;22.38;29.93
34177;BME280;20450;49.074;9.158;2023-03-18T12:16:22;99322.69;;;22.91;29.62
34177;BME280;20450;49.074;9.158;2023-03-18T12:19:16;99317.28;;;23.32;29.69
34177;BME280;20450;49.074;9.158;2023-03-18T12:22:09;99313.50;;;22.69;29.38
34177;BME280;20450;49.074;9.158;2023-03-18T12:25:18;99314.44;;;22.91;29.79
34177;BME280;20450;49.074;9.158;2023-03-18T12:28:26;99306.50;;;22.58;30.40
34177;BME280;20450;49.074;9.158;2023-03-18T12:31:27;99310.94;;;22.03;29.17
34177;BME280;20450;49.074;9.158;2023-03-18T12:34:27;99311.91;;;19.94;33.22
34177;BME280;20450;49.074;9.158;2023-03-18T12:37:18;99308.66;;;20.97;32.39
34177;BME280;20450;49.074;9.158;2023-03-18T12:40:12;99294.03;;;21.25;30.33
34177;BME280;20450;49.074;9.158;2023-03-18T12:42:59;99301.22;;;20.69;31.67
34177;BME280;20450;49.074;9.158;2023-03-18T12:45:44;99305.09;;;20.30;31.70
34177;BME280;20450;49.074;9.158;2023-03-18T12:48:19;99295.38;;;20.76;33.66
34177;BME280;20450;49.074;9.158;2023-03-18T12:51:12;99295.91;;;21.30;31.77
34177;BME280;20450;49.074;9.158;2023-03-18T12:53:46;99288.97;;;21.38;30.34
34177;BME280;20450;49.074;9.158;2023-03-18T12:56:20;99283.88;;;20.74;31.03
34177;BME280;20450;49.074;9.158;2023-03-18T12:58:52;99293.97;;;19.63;32.55
34177;BME280;20450;49.074;9.158;2023-03-18T13:01:33;99285.19;;;19.66;32.27
34177;BME280;20450;49.074;9.158;2023-03-18T13:04:09;99285.84;;;19.96;32.66
34177;BME280;20450;49.074;9.158;2023-03-18T13:06:43;99278.88;;;20.09;32.59
34177;BME280;20450;49.074;9.158;2023-03-18T13:09:23;99270.41;;;20.49;32.08
34177;BME280;20450;49.074;9.158;2023-03-18T13:12:03;99270.50;;;20.91;32.52
34177;BME280;20450;49.074;9.158;2023-03-18T13:14:43;99270.47;;;20.67;30.67
34177;BME280;20450;49.074;9.158;2023-03-18T13:17:23;99265.50;;;20.41;31.63
34177;BME280;20450;49.074;9.158;2023-03-18T13:19:57;99269.69;;;19.95;32.27
34177;BME280;20450;49.074;9.158;2023-03-18T13:22:45;99268.75;;;20.09;32.46
34177;BME280;20450;49.074;9.158;2023-03-18T13:25:36;99268.13;;;20.56;31.58
34177;BME280;20450;49.074;9.158;2023-03-18T13:28:26;99257.00;;;20.71;31.20
34177;BME280;20450;49.074;9.158;2023-03-18T13:31:09;99257.72;;;20.19;30.99
34177;BME280;20450;49.074;9.158;2023-03-18T13:34:32;99262.63;;;20.22;31.40
34177;BME280;20450;49.074;9.158;2023-03-18T13:37:42;99259.69;;;20.14;30.85